Carterville, Missouri
Current Conditions -  °F | °C
As of 5:53 AM on Monday 26 Jan 2015 (Local Time) from KJLN Reporting Station
Clear Clear  
Wind Chill: 21°   Ceiling: Unl
Heat Index: 26°   Visibility: 7mi
Dew Point: 24°   Wind: 5mph
Humidity: 92%   Direction: 200°SSW
Pressure: 30.11"   Gusts: NA
Location:  37.15°N, 94.44°W
Report Text: KJLN 261153Z 20004KT 7SM CLR M03/M04 A3011 RMK AO2 SLP201 I1000 I6000 T10331044 10022 21039 58004
Loading
Personal Weather Stations






























Interactive Weather Map New forecast layout! Learn more

10-Day Weather Forecast

Advertisements
Track Severe Weather on mobile